sensor_id;sensor_type;location;lat;lon;timestamp;P1;durP1;ratioP1;P2;durP2;ratioP2
16766;SDS011;8501;49.926;8.404;2023-02-05T00:00:17;33.03;;;14.23;;
16766;SDS011;8501;49.926;8.404;2023-02-05T00:02:43;26.53;;;11.83;;
16766;SDS011;8501;49.926;8.404;2023-02-05T00:05:09;20.20;;;9.13;;
16766;SDS011;8501;49.926;8.404;2023-02-05T00:07:34;17.63;;;8.13;;
16766;SDS011;8501;49.926;8.404;2023-02-05T00:10:00;17.07;;;8.47;;
16766;SDS011;8501;49.926;8.404;2023-02-05T00:12:26;19.00;;;8.20;;
16766;SDS011;8501;49.926;8.404;2023-02-05T00:14:51;19.00;;;8.37;;
16766;SDS011;8501;49.926;8.404;2023-02-05T00:17:17;13.47;;;7.57;;
16766;SDS011;8501;49.926;8.404;2023-02-05T00:19:43;15.40;;;7.53;;
16766;SDS011;8501;49.926;8.404;2023-02-05T00:22:09;21.70;;;8.90;;
16766;SDS011;8501;49.926;8.404;2023-02-05T00:24:34;24.17;;;10.00;;
16766;SDS011;8501;49.926;8.404;2023-02-05T00:27:00;22.70;;;10.93;;
16766;SDS011;8501;49.926;8.404;2023-02-05T00:29:25;28.90;;;10.93;;
16766;SDS011;8501;49.926;8.404;2023-02-05T00:31:51;28.17;;;12.53;;
16766;SDS011;8501;49.926;8.404;2023-02-05T00:34:17;28.50;;;11.60;;
16766;SDS011;8501;49.926;8.404;2023-02-05T00:36:43;25.67;;;11.37;;
16766;SDS011;8501;49.926;8.404;2023-02-05T00:39:09;22.93;;;10.97;;
16766;SDS011;8501;49.926;8.404;2023-02-05T00:41:35;25.90;;;11.97;;
16766;SDS011;8501;49.926;8.404;2023-02-05T00:44:02;21.30;;;10.07;;
16766;SDS011;8501;49.926;8.404;2023-02-05T00:46:28;20.00;;;9.87;;
16766;SDS011;8501;49.926;8.404;2023-02-05T00:48:53;17.17;;;9.53;;
16766;SDS011;8501;49.926;8.404;2023-02-05T00:51:19;18.53;;;8.97;;
16766;SDS011;8501;49.926;8.404;2023-02-05T00:53:44;20.70;;;9.17;;
16766;SDS011;8501;49.926;8.404;2023-02-05T00:56:10;21.10;;;10.00;;
16766;SDS011;8501;49.926;8.404;2023-02-05T00:58:35;18.10;;;8.40;;
16766;SDS011;8501;49.926;8.404;2023-02-05T01:01:01;15.40;;;7.90;;
16766;SDS011;8501;49.926;8.404;2023-02-05T01:03:27;16.43;;;7.37;;
16766;SDS011;8501;49.926;8.404;2023-02-05T01:05:52;15.80;;;7.50;;
16766;SDS011;8501;49.926;8.404;2023-02-05T01:08:18;13.67;;;6.87;;
16766;SDS011;8501;49.926;8.404;2023-02-05T01:10:44;20.10;;;7.43;;
16766;SDS011;8501;49.926;8.404;2023-02-05T01:13:11;14.53;;;7.10;;
16766;SDS011;8501;49.926;8.404;2023-02-05T01:15:37;14.50;;;7.33;;
16766;SDS011;8501;49.926;8.404;2023-02-05T01:18:03;17.87;;;7.23;;
16766;SDS011;8501;49.926;8.404;2023-02-05T01:20:28;13.70;;;7.40;;
16766;SDS011;8501;49.926;8.404;2023-02-05T01:22:54;16.63;;;6.93;;
16766;SDS011;8501;49.926;8.404;2023-02-05T01:25:20;14.77;;;7.00;;
16766;SDS011;8501;49.926;8.404;2023-02-05T01:27:45;14.50;;;6.63;;
16766;SDS011;8501;49.926;8.404;2023-02-05T01:30:11;12.27;;;6.83;;
16766;SDS011;8501;49.926;8.404;2023-02-05T01:32:37;16.60;;;7.77;;
16766;SDS011;8501;49.926;8.404;2023-02-05T01:35:04;15.00;;;7.13;;
16766;SDS011;8501;49.926;8.404;2023-02-05T01:37:30;12.87;;;6.93;;
16766;SDS011;8501;49.926;8.404;2023-02-05T01:39:56;17.73;;;7.70;;
16766;SDS011;8501;49.926;8.404;2023-02-05T01:42:23;14.40;;;7.30;;
16766;SDS011;8501;49.926;8.404;2023-02-05T01:48:02;13.17;;;6.97;;
16766;SDS011;8501;49.926;8.404;2023-02-05T01:50:30;14.07;;;6.57;;
16766;SDS011;8501;49.926;8.404;2023-02-05T01:53:02;13.33;;;7.00;;
16766;SDS011;8501;49.926;8.404;2023-02-05T01:55:39;17.40;;;7.10;;
16766;SDS011;8501;49.926;8.404;2023-02-05T01:58:26;13.97;;;8.23;;
16766;SDS011;8501;49.926;8.404;2023-02-05T02:00:55;14.03;;;7.37;;
16766;SDS011;8501;49.926;8.404;2023-02-05T02:03:21;12.07;;;7.50;;
16766;SDS011;8501;49.926;8.404;2023-02-05T02:05:49;15.90;;;7.57;;
16766;SDS011;8501;49.926;8.404;2023-02-05T02:08:15;14.87;;;7.40;;
16766;SDS011;8501;49.926;8.404;2023-02-05T02:10:41;14.57;;;7.60;;
16766;SDS011;8501;49.926;8.404;2023-02-05T02:13:09;13.97;;;7.70;;
16766;SDS011;8501;49.926;8.404;2023-02-05T02:15:36;16.53;;;7.13;;
16766;SDS011;8501;49.926;8.404;2023-02-05T02:18:02;10.83;;;6.20;;
16766;SDS011;8501;49.926;8.404;2023-02-05T02:20:48;12.20;;;6.00;;
16766;SDS011;8501;49.926;8.404;2023-02-05T02:28:59;13.93;;;7.23;;
16766;SDS011;8501;49.926;8.404;2023-02-05T02:31:29;11.43;;;6.30;;
16766;SDS011;8501;49.926;8.404;2023-02-05T02:34:03;10.40;;;6.33;;
16766;SDS011;8501;49.926;8.404;2023-02-05T02:36:40;15.47;;;7.30;;
16766;SDS011;8501;49.926;8.404;2023-02-05T02:39:25;11.70;;;6.43;;
16766;SDS011;8501;49.926;8.404;2023-02-05T02:42:01;14.67;;;6.43;;
16766;SDS011;8501;49.926;8.404;2023-02-05T02:44:36;14.70;;;6.47;;
16766;SDS011;8501;49.926;8.404;2023-02-05T02:47:11;9.83;;;6.10;;
16766;SDS011;8501;49.926;8.404;2023-02-05T02:49:43;11.57;;;6.33;;
16766;SDS011;8501;49.926;8.404;2023-02-05T02:52:14;14.97;;;7.03;;
16766;SDS011;8501;49.926;8.404;2023-02-05T02:54:44;12.93;;;7.07;;
16766;SDS011;8501;49.926;8.404;2023-02-05T02:57:11;15.23;;;6.53;;
16766;SDS011;8501;49.926;8.404;2023-02-05T02:59:41;16.17;;;7.13;;
16766;SDS011;8501;49.926;8.404;2023-02-05T03:02:08;12.10;;;7.33;;
16766;SDS011;8501;49.926;8.404;2023-02-05T03:04:36;15.10;;;7.30;;
16766;SDS011;8501;49.926;8.404;2023-02-05T03:07:13;12.83;;;7.50;;
16766;SDS011;8501;49.926;8.404;2023-02-05T03:09:51;11.70;;;6.70;;
16766;SDS011;8501;49.926;8.404;2023-02-05T03:12:23;16.43;;;7.50;;
16766;SDS011;8501;49.926;8.404;2023-02-05T03:14:49;14.37;;;7.60;;
16766;SDS011;8501;49.926;8.404;2023-02-05T03:17:15;20.43;;;7.83;;
16766;SDS011;8501;49.926;8.404;2023-02-05T03:19:47;15.53;;;7.70;;
16766;SDS011;8501;49.926;8.404;2023-02-05T03:22:20;15.07;;;8.03;;
16766;SDS011;8501;49.926;8.404;2023-02-05T03:24:45;15.57;;;7.80;;
16766;SDS011;8501;49.926;8.404;2023-02-05T03:27:11;14.30;;;8.27;;
16766;SDS011;8501;49.926;8.404;2023-02-05T03:29:37;20.33;;;8.60;;
16766;SDS011;8501;49.926;8.404;2023-02-05T03:37:38;16.03;;;8.23;;
16766;SDS011;8501;49.926;8.404;2023-02-05T03:48:48;10.70;;;7.77;;
16766;SDS011;8501;49.926;8.404;2023-02-05T03:51:43;14.53;;;7.57;;
16766;SDS011;8501;49.926;8.404;2023-02-05T03:57:08;16.20;;;7.50;;
16766;SDS011;8501;49.926;8.404;2023-02-05T03:59:49;10.97;;;6.83;;
16766;SDS011;8501;49.926;8.404;2023-02-05T04:02:16;12.97;;;7.87;;
16766;SDS011;8501;49.926;8.404;2023-02-05T04:04:42;14.40;;;6.73;;
16766;SDS011;8501;49.926;8.404;2023-02-05T04:07:08;15.50;;;7.17;;
16766;SDS011;8501;49.926;8.404;2023-02-05T04:09:34;12.30;;;7.23;;
16766;SDS011;8501;49.926;8.404;2023-02-05T04:11:59;16.27;;;7.67;;
16766;SDS011;8501;49.926;8.404;2023-02-05T04:14:25;14.97;;;7.47;;
16766;SDS011;8501;49.926;8.404;2023-02-05T04:16:51;13.97;;;7.57;;
16766;SDS011;8501;49.926;8.404;2023-02-05T04:19:16;12.33;;;7.40;;
16766;SDS011;8501;49.926;8.404;2023-02-05T04:21:43;10.43;;;6.83;;
16766;SDS011;8501;49.926;8.404;2023-02-05T04:24:08;15.20;;;6.90;;
16766;SDS011;8501;49.926;8.404;2023-02-05T04:26:34;13.50;;;7.20;;
16766;SDS011;8501;49.926;8.404;2023-02-05T04:28:59;12.83;;;6.93;;
16766;SDS011;8501;49.926;8.404;2023-02-05T04:31:25;15.37;;;7.53;;
16766;SDS011;8501;49.926;8.404;2023-02-05T04:33:50;14.67;;;7.50;;
16766;SDS011;8501;49.926;8.404;2023-02-05T04:36:16;12.93;;;7.40;;
16766;SDS011;8501;49.926;8.404;2023-02-05T04:38:41;14.20;;;7.40;;
16766;SDS011;8501;49.926;8.404;2023-02-05T04:41:07;14.47;;;7.97;;
16766;SDS011;8501;49.926;8.404;2023-02-05T04:43:33;13.63;;;7.90;;
16766;SDS011;8501;49.926;8.404;2023-02-05T04:46:09;18.27;;;7.77;;
16766;SDS011;8501;49.926;8.404;2023-02-05T04:48:35;15.53;;;7.70;;
16766;SDS011;8501;49.926;8.404;2023-02-05T04:51:06;13.27;;;8.07;;
16766;SDS011;8501;49.926;8.404;2023-02-05T04:53:32;13.80;;;7.73;;
16766;SDS011;8501;49.926;8.404;2023-02-05T04:56:08;15.43;;;8.00;;
16766;SDS011;8501;49.926;8.404;2023-02-05T04:58:35;15.27;;;7.97;;
16766;SDS011;8501;49.926;8.404;2023-02-05T05:01:01;15.30;;;7.93;;
16766;SDS011;8501;49.926;8.404;2023-02-05T05:03:27;13.77;;;8.00;;
16766;SDS011;8501;49.926;8.404;2023-02-05T05:05:53;16.00;;;8.07;;
16766;SDS011;8501;49.926;8.404;2023-02-05T05:08:18;13.97;;;8.07;;
16766;SDS011;8501;49.926;8.404;2023-02-05T05:10:44;14.20;;;7.60;;
16766;SDS011;8501;49.926;8.404;2023-02-05T05:13:09;13.50;;;8.37;;
16766;SDS011;8501;49.926;8.404;2023-02-05T05:15:35;13.23;;;7.77;;
16766;SDS011;8501;49.926;8.404;2023-02-05T05:18:00;13.90;;;8.33;;
16766;SDS011;8501;49.926;8.404;2023-02-05T05:20:26;19.37;;;8.77;;
16766;SDS011;8501;49.926;8.404;2023-02-05T05:22:53;14.03;;;8.40;;
16766;SDS011;8501;49.926;8.404;2023-02-05T05:25:19;15.83;;;8.10;;
16766;SDS011;8501;49.926;8.404;2023-02-05T05:27:45;14.43;;;7.97;;
16766;SDS011;8501;49.926;8.404;2023-02-05T05:30:11;15.80;;;8.67;;
16766;SDS011;8501;49.926;8.404;2023-02-05T05:32:37;18.93;;;8.83;;
16766;SDS011;8501;49.926;8.404;2023-02-05T05:35:02;17.10;;;9.83;;
16766;SDS011;8501;49.926;8.404;2023-02-05T05:37:28;19.23;;;9.97;;
16766;SDS011;8501;49.926;8.404;2023-02-05T05:39:53;18.47;;;9.07;;
16766;SDS011;8501;49.926;8.404;2023-02-05T05:42:38;22.27;;;9.90;;
16766;SDS011;8501;49.926;8.404;2023-02-05T05:45:22;18.27;;;9.90;;
16766;SDS011;8501;49.926;8.404;2023-02-05T05:47:47;18.97;;;9.67;;
16766;SDS011;8501;49.926;8.404;2023-02-05T05:50:13;17.07;;;8.87;;
16766;SDS011;8501;49.926;8.404;2023-02-05T05:52:39;17.77;;;9.43;;
16766;SDS011;8501;49.926;8.404;2023-02-05T05:55:04;17.20;;;9.33;;
16766;SDS011;8501;49.926;8.404;2023-02-05T05:57:30;19.10;;;9.80;;
16766;SDS011;8501;49.926;8.404;2023-02-05T05:59:55;18.87;;;9.90;;
16766;SDS011;8501;49.926;8.404;2023-02-05T06:02:21;15.73;;;8.97;;
16766;SDS011;8501;49.926;8.404;2023-02-05T06:04:46;19.53;;;9.80;;
16766;SDS011;8501;49.926;8.404;2023-02-05T06:07:12;19.50;;;9.93;;
16766;SDS011;8501;49.926;8.404;2023-02-05T06:09:38;20.00;;;10.30;;
16766;SDS011;8501;49.926;8.404;2023-02-05T06:12:03;17.50;;;10.57;;
16766;SDS011;8501;49.926;8.404;2023-02-05T06:14:29;17.13;;;10.10;;
16766;SDS011;8501;49.926;8.404;2023-02-05T06:16:54;21.47;;;10.70;;
16766;SDS011;8501;49.926;8.404;2023-02-05T06:19:20;19.13;;;10.47;;
16766;SDS011;8501;49.926;8.404;2023-02-05T06:21:46;20.53;;;10.70;;
16766;SDS011;8501;49.926;8.404;2023-02-05T06:24:12;19.13;;;10.47;;
16766;SDS011;8501;49.926;8.404;2023-02-05T06:26:37;17.83;;;11.03;;
16766;SDS011;8501;49.926;8.404;2023-02-05T06:29:03;18.60;;;10.20;;
16766;SDS011;8501;49.926;8.404;2023-02-05T06:31:29;19.43;;;10.70;;
16766;SDS011;8501;49.926;8.404;2023-02-05T06:33:55;21.27;;;11.03;;
16766;SDS011;8501;49.926;8.404;2023-02-05T06:36:20;21.13;;;11.53;;
16766;SDS011;8501;49.926;8.404;2023-02-05T06:38:46;19.10;;;10.90;;
16766;SDS011;8501;49.926;8.404;2023-02-05T06:41:11;20.97;;;11.47;;
16766;SDS011;8501;49.926;8.404;2023-02-05T06:43:37;21.10;;;11.40;;
16766;SDS011;8501;49.926;8.404;2023-02-05T06:46:03;23.20;;;11.90;;
16766;SDS011;8501;49.926;8.404;2023-02-05T06:48:28;21.27;;;12.13;;
16766;SDS011;8501;49.926;8.404;2023-02-05T06:50:54;18.63;;;11.80;;
16766;SDS011;8501;49.926;8.404;2023-02-05T06:53:19;21.53;;;11.90;;
16766;SDS011;8501;49.926;8.404;2023-02-05T06:55:45;21.60;;;11.60;;
16766;SDS011;8501;49.926;8.404;2023-02-05T06:58:10;23.90;;;11.63;;
16766;SDS011;8501;49.926;8.404;2023-02-05T07:00:37;18.53;;;11.50;;
16766;SDS011;8501;49.926;8.404;2023-02-05T07:03:03;18.27;;;11.43;;
16766;SDS011;8501;49.926;8.404;2023-02-05T07:05:28;22.67;;;11.87;;
16766;SDS011;8501;49.926;8.404;2023-02-05T07:07:54;20.47;;;11.60;;
16766;SDS011;8501;49.926;8.404;2023-02-05T07:10:22;22.23;;;11.60;;
16766;SDS011;8501;49.926;8.404;2023-02-05T07:12:48;19.77;;;12.20;;
16766;SDS011;8501;49.926;8.404;2023-02-05T07:15:13;21.70;;;12.47;;
16766;SDS011;8501;49.926;8.404;2023-02-05T07:17:39;22.17;;;12.27;;
16766;SDS011;8501;49.926;8.404;2023-02-05T07:20:05;19.67;;;11.53;;
16766;SDS011;8501;49.926;8.404;2023-02-05T07:22:30;19.40;;;11.23;;
16766;SDS011;8501;49.926;8.404;2023-02-05T07:24:56;20.83;;;11.73;;
16766;SDS011;8501;49.926;8.404;2023-02-05T07:27:22;22.63;;;11.97;;
16766;SDS011;8501;49.926;8.404;2023-02-05T07:29:47;20.17;;;10.97;;
16766;SDS011;8501;49.926;8.404;2023-02-05T07:32:13;19.10;;;11.57;;
16766;SDS011;8501;49.926;8.404;2023-02-05T07:34:38;23.53;;;11.93;;
16766;SDS011;8501;49.926;8.404;2023-02-05T07:37:04;19.60;;;10.80;;
16766;SDS011;8501;49.926;8.404;2023-02-05T07:39:29;22.70;;;11.87;;
16766;SDS011;8501;49.926;8.404;2023-02-05T07:41:57;19.80;;;11.67;;
16766;SDS011;8501;49.926;8.404;2023-02-05T07:44:23;21.17;;;11.83;;
16766;SDS011;8501;49.926;8.404;2023-02-05T07:46:49;19.67;;;11.67;;
16766;SDS011;8501;49.926;8.404;2023-02-05T07:49:14;19.33;;;11.37;;
16766;SDS011;8501;49.926;8.404;2023-02-05T07:51:40;24.30;;;11.63;;
16766;SDS011;8501;49.926;8.404;2023-02-05T07:54:06;19.67;;;10.83;;
16766;SDS011;8501;49.926;8.404;2023-02-05T07:56:33;24.47;;;12.70;;
16766;SDS011;8501;49.926;8.404;2023-02-05T07:58:58;20.13;;;12.10;;
16766;SDS011;8501;49.926;8.404;2023-02-05T08:01:24;18.30;;;10.97;;
16766;SDS011;8501;49.926;8.404;2023-02-05T08:03:50;19.80;;;11.17;;
16766;SDS011;8501;49.926;8.404;2023-02-05T08:06:15;19.77;;;11.40;;
16766;SDS011;8501;49.926;8.404;2023-02-05T08:08:41;17.87;;;11.07;;
16766;SDS011;8501;49.926;8.404;2023-02-05T08:11:09;18.33;;;11.53;;
16766;SDS011;8501;49.926;8.404;2023-02-05T08:13:40;21.53;;;11.50;;
16766;SDS011;8501;49.926;8.404;2023-02-05T08:16:06;20.37;;;11.60;;
16766;SDS011;8501;49.926;8.404;2023-02-05T08:18:32;18.93;;;11.57;;
16766;SDS011;8501;49.926;8.404;2023-02-05T08:20:57;20.03;;;12.20;;
16766;SDS011;8501;49.926;8.404;2023-02-05T08:23:23;21.63;;;11.60;;
16766;SDS011;8501;49.926;8.404;2023-02-05T08:25:52;22.57;;;11.50;;
16766;SDS011;8501;49.926;8.404;2023-02-05T08:28:18;22.40;;;11.90;;
16766;SDS011;8501;49.926;8.404;2023-02-05T08:30:44;19.43;;;11.53;;
16766;SDS011;8501;49.926;8.404;2023-02-05T08:33:10;19.50;;;10.87;;
16766;SDS011;8501;49.926;8.404;2023-02-05T08:35:35;25.50;;;13.90;;
16766;SDS011;8501;49.926;8.404;2023-02-05T08:38:01;21.70;;;13.80;;
16766;SDS011;8501;49.926;8.404;2023-02-05T08:40:26;21.97;;;12.60;;
16766;SDS011;8501;49.926;8.404;2023-02-05T08:42:52;26.80;;;15.70;;
16766;SDS011;8501;49.926;8.404;2023-02-05T08:45:21;21.87;;;13.97;;
16766;SDS011;8501;49.926;8.404;2023-02-05T08:47:47;24.00;;;14.70;;
16766;SDS011;8501;49.926;8.404;2023-02-05T08:50:12;20.90;;;12.60;;
16766;SDS011;8501;49.926;8.404;2023-02-05T08:52:39;24.60;;;15.73;;
16766;SDS011;8501;49.926;8.404;2023-02-05T08:55:05;32.67;;;19.20;;
16766;SDS011;8501;49.926;8.404;2023-02-05T08:57:31;25.53;;;13.53;;
16766;SDS011;8501;49.926;8.404;2023-02-05T08:59:56;23.83;;;12.80;;
16766;SDS011;8501;49.926;8.404;2023-02-05T09:02:23;21.03;;;12.43;;
16766;SDS011;8501;49.926;8.404;2023-02-05T09:04:49;25.00;;;12.13;;
16766;SDS011;8501;49.926;8.404;2023-02-05T09:07:14;22.73;;;11.83;;
16766;SDS011;8501;49.926;8.404;2023-02-05T09:09:40;22.40;;;12.77;;
16766;SDS011;8501;49.926;8.404;2023-02-05T09:12:06;25.30;;;13.10;;
16766;SDS011;8501;49.926;8.404;2023-02-05T09:14:34;25.77;;;15.27;;
16766;SDS011;8501;49.926;8.404;2023-02-05T09:17:09;30.07;;;17.53;;
16766;SDS011;8501;49.926;8.404;2023-02-05T09:22:03;23.93;;;13.80;;
16766;SDS011;8501;49.926;8.404;2023-02-05T09:24:29;30.40;;;17.60;;
16766;SDS011;8501;49.926;8.404;2023-02-05T09:26:55;27.37;;;16.57;;
16766;SDS011;8501;49.926;8.404;2023-02-05T09:29:20;29.50;;;15.13;;
16766;SDS011;8501;49.926;8.404;2023-02-05T09:31:46;25.80;;;15.23;;
16766;SDS011;8501;49.926;8.404;2023-02-05T09:34:12;23.07;;;14.07;;
16766;SDS011;8501;49.926;8.404;2023-02-05T09:36:38;27.83;;;15.93;;
16766;SDS011;8501;49.926;8.404;2023-02-05T09:39:04;26.30;;;16.43;;
16766;SDS011;8501;49.926;8.404;2023-02-05T09:44:42;23.97;;;13.47;;
16766;SDS011;8501;49.926;8.404;2023-02-05T09:47:30;24.17;;;13.43;;
16766;SDS011;8501;49.926;8.404;2023-02-05T09:52:40;25.47;;;13.83;;
16766;SDS011;8501;49.926;8.404;2023-02-05T09:55:28;27.27;;;13.97;;
16766;SDS011;8501;49.926;8.404;2023-02-05T09:57:57;23.80;;;14.83;;
16766;SDS011;8501;49.926;8.404;2023-02-05T10:00:43;24.53;;;14.37;;
16766;SDS011;8501;49.926;8.404;2023-02-05T10:03:22;28.90;;;14.40;;
16766;SDS011;8501;49.926;8.404;2023-02-05T10:08:42;26.70;;;14.47;;
16766;SDS011;8501;49.926;8.404;2023-02-05T10:14:04;24.73;;;14.67;;
16766;SDS011;8501;49.926;8.404;2023-02-05T10:19:49;25.93;;;14.60;;
16766;SDS011;8501;49.926;8.404;2023-02-05T10:22:29;25.73;;;14.13;;
16766;SDS011;8501;49.926;8.404;2023-02-05T10:27:59;26.60;;;15.07;;
16766;SDS011;8501;49.926;8.404;2023-02-05T10:33:32;34.07;;;16.33;;
16766;SDS011;8501;49.926;8.404;2023-02-05T10:36:06;31.97;;;16.30;;
16766;SDS011;8501;49.926;8.404;2023-02-05T10:38:35;29.07;;;15.97;;
16766;SDS011;8501;49.926;8.404;2023-02-05T10:41:11;28.47;;;15.93;;
16766;SDS011;8501;49.926;8.404;2023-02-05T10:46:35;28.73;;;15.07;;
16766;SDS011;8501;49.926;8.404;2023-02-05T10:49:14;27.20;;;15.77;;
16766;SDS011;8501;49.926;8.404;2023-02-05T10:51:48;29.67;;;15.80;;
16766;SDS011;8501;49.926;8.404;2023-02-05T10:54:22;31.33;;;16.60;;
16766;SDS011;8501;49.926;8.404;2023-02-05T10:56:52;31.73;;;15.70;;
16766;SDS011;8501;49.926;8.404;2023-02-05T10:59:22;31.93;;;18.00;;
16766;SDS011;8501;49.926;8.404;2023-02-05T11:01:50;34.50;;;18.90;;
16766;SDS011;8501;49.926;8.404;2023-02-05T11:04:24;35.30;;;19.73;;
16766;SDS011;8501;49.926;8.404;2023-02-05T11:06:58;30.40;;;17.70;;
16766;SDS011;8501;49.926;8.404;2023-02-05T11:11:57;28.23;;;15.87;;
16766;SDS011;8501;49.926;8.404;2023-02-05T11:14:33;31.17;;;17.23;;
16766;SDS011;8501;49.926;8.404;2023-02-05T11:17:20;29.03;;;16.27;;
16766;SDS011;8501;49.926;8.404;2023-02-05T11:19:55;26.07;;;16.10;;
16766;SDS011;8501;49.926;8.404;2023-02-05T11:22:25;29.63;;;17.27;;
16766;SDS011;8501;49.926;8.404;2023-02-05T11:25:06;30.27;;;17.03;;
16766;SDS011;8501;49.926;8.404;2023-02-05T11:27:34;30.13;;;18.10;;
16766;SDS011;8501;49.926;8.404;2023-02-05T11:32:46;31.47;;;17.87;;
16766;SDS011;8501;49.926;8.404;2023-02-05T11:35:15;29.37;;;16.50;;
16766;SDS011;8501;49.926;8.404;2023-02-05T11:37:42;29.50;;;17.37;;
16766;SDS011;8501;49.926;8.404;2023-02-05T11:40:19;28.30;;;16.00;;
16766;SDS011;8501;49.926;8.404;2023-02-05T11:42:47;30.17;;;17.47;;
16766;SDS011;8501;49.926;8.404;2023-02-05T11:45:21;27.13;;;15.97;;
16766;SDS011;8501;49.926;8.404;2023-02-05T11:47:49;28.63;;;16.60;;
16766;SDS011;8501;49.926;8.404;2023-02-05T11:50:20;28.63;;;17.40;;
16766;SDS011;8501;49.926;8.404;2023-02-05T11:52:49;28.77;;;17.53;;
16766;SDS011;8501;49.926;8.404;2023-02-05T11:55:26;37.03;;;20.03;;
16766;SDS011;8501;49.926;8.404;2023-02-05T11:57:58;37.07;;;20.23;;
16766;SDS011;8501;49.926;8.404;2023-02-05T12:00:25;33.63;;;20.20;;
16766;SDS011;8501;49.926;8.404;2023-02-05T12:03:00;32.17;;;18.57;;
16766;SDS011;8501;49.926;8.404;2023-02-05T12:05:30;32.43;;;18.47;;
16766;SDS011;8501;49.926;8.404;2023-02-05T12:16:38;36.37;;;20.83;;
16766;SDS011;8501;49.926;8.404;2023-02-05T12:19:27;33.37;;;19.47;;
16766;SDS011;8501;49.926;8.404;2023-02-05T12:22:12;32.33;;;19.10;;
16766;SDS011;8501;49.926;8.404;2023-02-05T12:30:23;32.17;;;18.30;;
16766;SDS011;8501;49.926;8.404;2023-02-05T12:32:56;35.43;;;20.00;;
16766;SDS011;8501;49.926;8.404;2023-02-05T12:41:26;31.67;;;17.87;;
16766;SDS011;8501;49.926;8.404;2023-02-05T12:44:17;29.77;;;17.83;;
16766;SDS011;8501;49.926;8.404;2023-02-05T12:59:13;29.77;;;17.13;;
16766;SDS011;8501;49.926;8.404;2023-02-05T13:01:56;32.77;;;17.37;;
16766;SDS011;8501;49.926;8.404;2023-02-05T13:04:35;37.10;;;19.60;;
16766;SDS011;8501;49.926;8.404;2023-02-05T13:09:50;33.00;;;19.70;;
16766;SDS011;8501;49.926;8.404;2023-02-05T13:12:20;30.57;;;17.97;;
16766;SDS011;8501;49.926;8.404;2023-02-05T13:15:13;32.13;;;18.67;;
16766;SDS011;8501;49.926;8.404;2023-02-05T13:17:41;31.87;;;18.30;;
16766;SDS011;8501;49.926;8.404;2023-02-05T13:20:27;34.43;;;18.67;;
16766;SDS011;8501;49.926;8.404;2023-02-05T13:23:26;32.73;;;19.53;;
16766;SDS011;8501;49.926;8.404;2023-02-05T13:26:12;33.83;;;20.27;;
16766;SDS011;8501;49.926;8.404;2023-02-05T13:28:50;30.97;;;19.37;;
16766;SDS011;8501;49.926;8.404;2023-02-05T13:33:48;34.23;;;20.13;;
16766;SDS011;8501;49.926;8.404;2023-02-05T13:47:38;30.90;;;17.60;;
16766;SDS011;8501;49.926;8.404;2023-02-05T13:53:13;32.40;;;18.27;;
16766;SDS011;8501;49.926;8.404;2023-02-05T13:58:38;31.57;;;18.00;;
16766;SDS011;8501;49.926;8.404;2023-02-05T14:01:25;32.40;;;18.30;;
16766;SDS011;8501;49.926;8.404;2023-02-05T14:03:56;119.20;;;44.07;;
16766;SDS011;8501;49.926;8.404;2023-02-05T14:06:28;51.23;;;24.50;;
16766;SDS011;8501;49.926;8.404;2023-02-05T14:09:04;70.30;;;33.17;;
16766;SDS011;8501;49.926;8.404;2023-02-05T14:11:53;71.47;;;35.43;;
16766;SDS011;8501;49.926;8.404;2023-02-05T14:14:23;38.60;;;22.10;;
16766;SDS011;8501;49.926;8.404;2023-02-05T14:17:00;34.27;;;19.67;;
16766;SDS011;8501;49.926;8.404;2023-02-05T14:21:57;31.97;;;17.67;;
16766;SDS011;8501;49.926;8.404;2023-02-05T14:24:38;27.00;;;16.27;;
16766;SDS011;8501;49.926;8.404;2023-02-05T14:27:18;29.77;;;17.03;;
16766;SDS011;8501;49.926;8.404;2023-02-05T14:29:45;31.20;;;18.07;;
16766;SDS011;8501;49.926;8.404;2023-02-05T14:35:00;33.20;;;19.80;;
16766;SDS011;8501;49.926;8.404;2023-02-05T14:37:31;37.03;;;21.97;;
16766;SDS011;8501;49.926;8.404;2023-02-05T14:43:10;39.60;;;21.77;;
16766;SDS011;8501;49.926;8.404;2023-02-05T14:45:45;39.80;;;22.83;;
16766;SDS011;8501;49.926;8.404;2023-02-05T14:48:25;38.30;;;22.97;;
16766;SDS011;8501;49.926;8.404;2023-02-05T14:53:51;39.00;;;20.63;;
16766;SDS011;8501;49.926;8.404;2023-02-05T14:56:21;35.97;;;19.17;;
16766;SDS011;8501;49.926;8.404;2023-02-05T14:58:56;38.67;;;20.03;;
16766;SDS011;8501;49.926;8.404;2023-02-05T15:04:01;48.40;;;23.50;;
16766;SDS011;8501;49.926;8.404;2023-02-05T15:06:28;44.63;;;23.70;;
16766;SDS011;8501;49.926;8.404;2023-02-05T15:09:03;42.03;;;22.77;;
16766;SDS011;8501;49.926;8.404;2023-02-05T15:12:02;36.43;;;20.10;;
16766;SDS011;8501;49.926;8.404;2023-02-05T15:14:50;37.50;;;20.97;;
16766;SDS011;8501;49.926;8.404;2023-02-05T15:25:35;38.40;;;20.97;;
16766;SDS011;8501;49.926;8.404;2023-02-05T15:28:26;36.10;;;20.30;;
16766;SDS011;8501;49.926;8.404;2023-02-05T15:31:19;38.13;;;20.93;;
16766;SDS011;8501;49.926;8.404;2023-02-05T15:37:10;40.00;;;22.40;;
16766;SDS011;8501;49.926;8.404;2023-02-05T15:41:58;42.60;;;23.03;;
16766;SDS011;8501;49.926;8.404;2023-02-05T15:44:28;42.73;;;23.83;;
16766;SDS011;8501;49.926;8.404;2023-02-05T15:47:03;43.00;;;23.57;;
16766;SDS011;8501;49.926;8.404;2023-02-05T15:49:42;43.47;;;23.90;;
16766;SDS011;8501;49.926;8.404;2023-02-05T15:52:26;44.30;;;22.77;;
16766;SDS011;8501;49.926;8.404;2023-02-05T15:54:54;40.43;;;22.53;;
16766;SDS011;8501;49.926;8.404;2023-02-05T15:57:24;42.03;;;21.93;;
16766;SDS011;8501;49.926;8.404;2023-02-05T15:59:55;41.80;;;22.43;;
16766;SDS011;8501;49.926;8.404;2023-02-05T16:02:29;41.37;;;21.77;;
16766;SDS011;8501;49.926;8.404;2023-02-05T16:04:59;36.23;;;20.80;;
16766;SDS011;8501;49.926;8.404;2023-02-05T16:07:35;43.00;;;22.90;;
16766;SDS011;8501;49.926;8.404;2023-02-05T16:10:14;43.63;;;23.73;;
16766;SDS011;8501;49.926;8.404;2023-02-05T16:13:01;46.43;;;24.43;;
16766;SDS011;8501;49.926;8.404;2023-02-05T16:15:30;39.23;;;20.93;;
16766;SDS011;8501;49.926;8.404;2023-02-05T16:18:02;36.10;;;20.83;;
16766;SDS011;8501;49.926;8.404;2023-02-05T16:20:33;38.63;;;20.80;;
16766;SDS011;8501;49.926;8.404;2023-02-05T16:23:07;48.07;;;22.80;;
16766;SDS011;8501;49.926;8.404;2023-02-05T16:26:01;40.70;;;22.27;;
16766;SDS011;8501;49.926;8.404;2023-02-05T16:28:35;38.67;;;20.37;;
16766;SDS011;8501;49.926;8.404;2023-02-05T16:31:07;38.97;;;21.50;;
16766;SDS011;8501;49.926;8.404;2023-02-05T16:36:22;38.93;;;22.07;;
16766;SDS011;8501;49.926;8.404;2023-02-05T16:38:51;44.93;;;22.87;;
16766;SDS011;8501;49.926;8.404;2023-02-05T16:41:26;41.03;;;22.47;;
16766;SDS011;8501;49.926;8.404;2023-02-05T16:43:58;39.43;;;21.17;;
16766;SDS011;8501;49.926;8.404;2023-02-05T16:46:28;38.67;;;21.37;;
16766;SDS011;8501;49.926;8.404;2023-02-05T16:48:56;40.87;;;22.53;;
16766;SDS011;8501;49.926;8.404;2023-02-05T16:53:58;38.20;;;20.40;;
16766;SDS011;8501;49.926;8.404;2023-02-05T16:56:55;37.20;;;20.63;;
16766;SDS011;8501;49.926;8.404;2023-02-05T16:59:32;40.07;;;22.47;;
16766;SDS011;8501;49.926;8.404;2023-02-05T17:02:30;39.23;;;22.10;;
16766;SDS011;8501;49.926;8.404;2023-02-05T17:04:59;42.20;;;22.33;;
16766;SDS011;8501;49.926;8.404;2023-02-05T17:07:30;38.30;;;20.50;;
16766;SDS011;8501;49.926;8.404;2023-02-05T17:10:12;42.80;;;24.73;;
16766;SDS011;8501;49.926;8.404;2023-02-05T17:12:44;49.97;;;26.80;;
16766;SDS011;8501;49.926;8.404;2023-02-05T17:17:44;47.40;;;24.47;;
16766;SDS011;8501;49.926;8.404;2023-02-05T17:22:39;42.07;;;22.93;;
16766;SDS011;8501;49.926;8.404;2023-02-05T17:25:33;46.13;;;24.70;;